Time;durP1;ratioP1;P1;durP2;ratioP2;P2;SDS_P1;SDS_P2;PMS_P1;PMS_P2;Temp;Humidity;BMP_temperature;BMP_pressure;BME280_temperature;BME280_humidity;BME280_pressure;Samples;Min_cycle;Max_cycle;Signal;HPM_P1;HPM_P2
2022/09/25 00:01:14;;;;;;;12.45;10.68;;;;;;;8.80;98.03;100254.22;4925947;29;20032;-76
2022/09/25 00:03:40;;;;;;;11.45;9.13;;;;;;;8.80;98.74;100245.44;4924465;29;20051;-75
2022/09/25 00:06:08;;;;;;;12.55;10.43;;;;;;;8.80;98.71;100253.34;4926998;29;20031;-75
2022/09/25 00:08:35;;;;;;;14.57;10.23;;;;;;;8.78;98.50;100256.88;4924623;29;20408;-75
2022/09/25 00:11:08;;;;;;;12.45;10.05;;;;;;;8.78;97.71;100256.88;4925599;29;20397;-75
2022/09/25 00:13:34;;;;;;;13.90;11.85;;;;;;;8.80;97.77;100255.97;4926821;29;20095;-75
2022/09/25 00:15:59;;;;;;;11.43;10.23;;;;;;;8.80;97.67;100254.22;4923756;29;20044;-75
2022/09/25 00:21:13;;;;;;;9.82;8.85;;;;;;;8.75;97.30;100251.63;4929158;29;20050;-75
2022/09/25 00:23:39;;;;;;;12.55;9.63;;;;;;;8.69;96.88;100256.00;4940671;29;20071;-75
2022/09/25 00:26:07;;;;;;;11.48;10.38;;;;;;;8.61;96.65;100248.13;4935692;29;20039;-76
2022/09/25 00:28:35;;;;;;;13.43;10.32;;;;;;;8.55;96.78;100253.41;4925909;29;20054;-75
2022/09/25 00:31:02;;;;;;;14.52;10.52;;;;;;;8.50;97.26;100249.91;4923550;29;20415;-75
2022/09/25 00:33:27;;;;;;;11.32;10.13;;;;;;;8.44;97.81;100252.56;4926188;29;20058;-76
2022/09/25 00:35:52;;;;;;;14.80;9.75;;;;;;;8.37;98.20;100253.44;4935790;29;20494;-76
2022/09/25 00:38:18;;;;;;;12.23;10.43;;;;;;;8.29;97.72;100249.03;4924862;29;20056;-76
2022/09/25 00:40:43;;;;;;;11.50;10.02;;;;;;;8.24;98.02;100242.03;4924545;29;20041;-75
2022/09/25 00:43:32;;;;;;;13.15;11.75;;;;;;;8.15;99.51;100248.19;4925793;29;20098;-76
2022/09/25 00:45:58;;;;;;;11.52;10.00;;;;;;;8.02;100.00;100251.72;4925858;29;20144;-76
2022/09/25 00:48:23;;;;;;;13.57;11.18;;;;;;;7.96;100.00;100247.31;4923153;29;20491;-76
2022/09/25 00:50:52;;;;;;;13.35;10.60;;;;;;;7.87;100.00;100248.19;4926402;29;20043;-75
2022/09/25 00:53:22;;;;;;;15.82;11.07;;;;;;;7.86;100.00;100249.09;4924171;29;20028;-76
2022/09/25 00:55:48;;;;;;;16.38;13.07;;;;;;;7.82;99.65;100243.81;4924253;29;20048;-76
2022/09/25 00:58:18;;;;;;;15.40;11.68;;;;;;;7.81;99.68;100250.81;4926074;29;20046;-75
2022/09/25 01:00:44;;;;;;;13.02;10.90;;;;;;;7.82;99.97;100247.31;4923378;29;20040;-75
2022/09/25 01:03:10;;;;;;;14.15;9.77;;;;;;;7.78;99.72;100248.19;4925050;29;20127;-75
2022/09/25 01:05:39;;;;;;;12.75;9.88;;;;;;;7.74;99.58;100245.56;4924663;29;20032;-76
2022/09/25 01:08:09;;;;;;;9.85;8.85;;;;;;;7.71;99.71;100246.44;4923593;29;20043;-75
2022/09/25 01:10:35;;;;;;;11.45;10.25;;;;;;;7.58;100.00;100248.16;4923064;29;20048;-75
2022/09/25 01:13:00;;;;;;;13.05;11.40;;;;;;;7.54;100.00;100253.41;4925336;29;20103;-76
2022/09/25 01:15:44;;;;;;;15.18;13.57;;;;;;;7.50;100.00;100246.41;4924194;29;20486;-76
2022/09/25 01:18:22;;;;;;;15.02;12.43;;;;;;;7.53;100.00;100254.28;4923574;29;20095;-75
2022/09/25 01:21:12;;;;;;;14.45;11.75;;;;;;;7.56;100.00;100246.41;4924855;29;20036;-75
2022/09/25 01:24:09;;;;;;;12.90;10.23;;;;;;;7.52;100.00;100244.63;4929193;29;20048;-75
2022/09/25 01:27:12;;;;;;;12.52;11.27;;;;;;;7.50;100.00;100242.03;4923109;29;20032;-76
2022/09/25 01:30:08;;;;;;;12.55;11.05;;;;;;;7.47;100.00;100242.91;4925057;29;20368;-75
2022/09/25 01:32:58;;;;;;;12.00;10.70;;;;;;;7.47;100.00;100237.66;4925426;29;20455;-75
2022/09/25 01:35:47;;;;;;;12.90;11.57;;;;;;;7.45;100.00;100239.38;4925754;29;20046;-75
2022/09/25 01:38:20;;;;;;;10.98;9.88;;;;;;;7.39;100.00;100249.03;4927436;29;20131;-76
2022/09/25 01:40:49;;;;;;;12.35;10.68;;;;;;;7.35;100.00;100253.38;4927404;29;20040;-76
2022/09/25 01:43:24;;;;;;;14.40;10.65;;;;;;;7.32;100.00;100258.63;4927807;29;20400;-75
2022/09/25 01:46:06;;;;;;;14.45;9.02;;;;;;;7.29;100.00;100252.50;4929673;29;20042;-75
2022/09/25 01:48:34;;;;;;;11.52;10.32;;;;;;;7.24;100.00;100257.72;4931940;29;20046;-75
2022/09/25 01:51:22;;;;;;;11.75;9.93;;;;;;;7.18;100.00;100255.09;4928243;29;20040;-76
2022/09/25 01:53:54;;;;;;;14.77;10.40;;;;;;;7.10;100.00;100252.44;4926505;29;20118;-76
2022/09/25 01:56:31;;;;;;;12.20;10.07;;;;;;;7.06;100.00;100255.03;4928436;29;20541;-76
2022/09/25 01:59:03;;;;;;;11.70;10.07;;;;;;;7.06;100.00;100248.03;4929468;29;20492;-75
2022/09/25 02:01:34;;;;;;;13.48;11.70;;;;;;;6.98;100.00;100248.00;4926805;29;20036;-75
2022/09/25 02:04:07;;;;;;;12.80;9.55;;;;;;;6.98;100.00;100250.63;4941972;29;20058;-76
2022/09/25 02:06:35;;;;;;;14.25;10.57;;;;;;;6.99;100.00;100255.00;4940840;28;20131;-75
2022/09/25 02:09:08;;;;;;;12.20;10.90;;;;;;;6.98;100.00;100248.00;4933606;29;20046;-74
2022/09/25 02:11:40;;;;;;;17.60;12.40;;;;;;;7.00;100.00;100246.28;4928305;29;20035;-76
2022/09/25 02:14:21;;;;;;;14.90;11.50;;;;;;;7.04;100.00;100249.78;4926387;29;20091;-76
2022/09/25 02:16:51;;;;;;;14.07;11.65;;;;;;;7.01;100.00;100242.75;4939510;28;20062;-75
2022/09/25 02:22:09;;;;;;;12.55;10.13;;;;;;;6.93;100.00;100236.59;4932125;29;20036;-76
2022/09/25 02:24:46;;;;;;;8.88;7.78;;;;;;;6.87;100.00;100233.97;4929248;29;20111;-76
2022/09/25 02:27:11;;;;;;;9.45;8.40;;;;;;;6.79;100.00;100231.31;4928967;29;20039;-75
2022/09/25 02:29:37;;;;;;;10.55;9.45;;;;;;;6.73;100.00;100233.03;4925982;29;20055;-76
2022/09/25 02:32:11;;;;;;;11.77;9.48;;;;;;;6.75;100.00;100234.78;4927872;29;20035;-75
2022/09/25 02:34:36;;;;;;;14.60;9.77;;;;;;;6.73;100.00;100230.41;4928165;29;20051;-76
2022/09/25 02:37:05;;;;;;;13.32;9.80;;;;;;;6.76;100.00;100227.81;4924478;29;20414;-75
2022/09/25 02:39:30;;;;;;;13.10;11.40;;;;;;;6.72;100.00;100237.41;4925935;29;20483;-76
2022/09/25 02:42:19;;;;;;;13.15;11.40;;;;;;;6.70;100.00;100235.63;4927568;29;20048;-76
2022/09/25 02:45:01;;;;;;;15.20;12.98;;;;;;;6.59;100.00;100236.44;4926375;29;20410;-76
2022/09/25 02:47:38;;;;;;;16.50;12.50;;;;;;;6.57;100.00;100237.31;4930966;29;20039;-75
2022/09/25 02:50:19;;;;;;;12.50;11.05;;;;;;;6.47;100.00;100232.88;4925782;29;20035;-75
2022/09/25 02:53:00;;;;;;;10.55;9.48;;;;;;;6.37;100.00;100245.09;4934379;29;20054;-76
2022/09/25 02:55:38;;;;;;;12.68;10.15;;;;;;;6.40;100.00;100242.47;4928196;29;20177;-76
2022/09/25 02:58:12;;;;;;;12.40;9.38;;;;;;;6.38;100.00;100240.72;4926106;29;20040;-76
2022/09/25 03:00:39;;;;;;;10.00;8.70;;;;;;;6.39;100.00;100240.69;4925113;29;20123;-76
2022/09/25 03:03:08;;;;;;;22.77;9.82;;;;;;;6.39;100.00;100245.06;4927473;29;20501;-76
2022/09/25 03:05:34;;;;;;;54.90;13.50;;;;;;;6.33;100.00;100230.19;4926704;29;20035;-75
2022/09/25 03:10:45;;;;;;;16.38;10.52;;;;;;;6.31;100.00;100243.31;4933330;29;20509;-76
2022/09/25 03:13:25;;;;;;;11.27;8.98;;;;;;;6.32;100.00;100234.56;4928249;29;20438;-76
2022/09/25 03:15:57;;;;;;;10.32;8.57;;;;;;;6.33;100.00;100236.31;4940633;28;20047;-76
2022/09/25 03:18:24;;;;;;;8.88;7.97;;;;;;;6.33;100.00;100240.66;4925374;29;20036;-75
2022/09/25 03:20:50;;;;;;;14.48;11.82;;;;;;;6.28;100.00;100231.91;4927916;29;20510;-76
2022/09/25 03:23:16;;;;;;;15.15;11.45;;;;;;;6.34;100.00;100229.31;4921266;29;20047;-76
2022/09/25 03:25:41;;;;;;;15.65;11.23;;;;;;;6.28;100.00;100227.53;4926869;29;20097;-75
2022/09/25 03:28:11;;;;;;;14.02;12.27;;;;;;;6.27;100.00;100230.16;4926242;29;20048;-76
2022/09/25 03:30:39;;;;;;;14.95;11.63;;;;;;;6.23;100.00;100228.38;4925167;29;20450;-76
2022/09/25 03:33:10;;;;;;;15.48;11.32;;;;;;;6.15;100.00;100234.44;4927511;29;20118;-75
2022/09/25 03:35:37;;;;;;;14.73;11.82;;;;;;;6.12;100.00;100241.41;4925799;29;20043;-75
2022/09/25 03:38:03;;;;;;;16.17;11.68;;;;;;;6.08;100.00;100244.88;4925744;29;20039;-76
2022/09/25 03:40:28;;;;;;;15.38;11.43;;;;;;;6.11;100.00;100239.66;4927010;29;20051;-76
2022/09/25 03:42:54;;;;;;;17.88;13.20;;;;;;;6.16;100.00;100237.94;4924084;29;20151;-75
2022/09/25 03:45:19;;;;;;;13.90;11.32;;;;;;;6.19;100.00;100235.34;4924306;29;20044;-75
2022/09/25 03:47:44;;;;;;;13.60;10.68;;;;;;;6.21;100.00;100224.84;4926936;29;20040;-76
2022/09/25 03:50:09;;;;;;;14.07;10.70;;;;;;;6.22;100.00;100230.13;4925436;29;20044;-76
2022/09/25 03:52:35;;;;;;;17.15;12.40;;;;;;;6.21;100.00;100228.38;4926582;29;20042;-75
2022/09/25 03:55:01;;;;;;;10.38;9.18;;;;;;;6.18;100.00;100225.72;4926410;29;20044;-76
2022/09/25 03:57:26;;;;;;;12.25;9.40;;;;;;;6.15;100.00;100226.56;4924301;29;20496;-76
2022/09/25 03:59:51;;;;;;;16.15;10.07;;;;;;;6.14;100.00;100230.06;4927295;29;20043;-75
2022/09/25 04:02:17;;;;;;;12.32;10.93;;;;;;;6.04;100.00;100236.09;4923824;29;20048;-76
2022/09/25 04:04:44;;;;;;;12.82;11.43;;;;;;;6.01;100.00;100237.84;4926491;29;20035;-75
2022/09/25 04:07:10;;;;;;;14.80;11.50;;;;;;;6.03;100.00;100231.75;4925613;29;20048;-75
2022/09/25 04:09:36;;;;;;;13.80;12.05;;;;;;;6.04;100.00;100233.47;4923910;29;20415;-75
2022/09/25 04:12:01;;;;;;;14.45;11.00;;;;;;;6.08;100.00;100229.16;4926398;29;20036;-75
2022/09/25 04:14:27;;;;;;;11.73;10.32;;;;;;;6.13;100.00;100244.06;4923855;29;20040;-75
2022/09/25 04:16:52;;;;;;;14.35;11.25;;;;;;;6.17;100.00;100234.44;4926707;29;20046;-76
2022/09/25 04:19:17;;;;;;;15.50;12.57;;;;;;;6.08;100.00;100237.03;4924630;29;20036;-75
2022/09/25 04:21:42;;;;;;;11.80;10.52;;;;;;;6.02;100.00;100240.44;4927863;29;20082;-75
2022/09/25 04:26:53;;;;;;;20.10;13.00;;;;;;;6.12;100.00;100228.31;4925014;29;20047;-75
2022/09/25 04:29:20;;;;;;;11.50;10.10;;;;;;;6.06;100.00;100237.00;4924808;29;20039;-75
2022/09/25 04:33:44;;;;;;;14.88;11.18;;;;;;;6.06;100.00;100241.38;4926014;29;20075;-75
2022/09/25 04:34:30;;;;;;;16.65;11.20;;;;;;;6.03;100.00;100236.09;4925681;29;20520;-75
2022/09/25 04:36:56;;;;;;;15.93;11.32;;;;;;;6.01;100.00;100241.31;4923891;29;20116;-76
2022/09/25 04:39:21;;;;;;;13.43;9.95;;;;;;;6.01;100.00;100246.56;4926556;29;20071;-76
2022/09/25 04:41:46;;;;;;;15.27;10.10;;;;;;;5.96;100.00;100237.78;4923271;29;20087;-75
2022/09/25 04:44:12;;;;;;;12.68;10.02;;;;;;;5.94;100.00;100239.50;4925859;29;20076;-75
2022/09/25 04:46:37;;;;;;;15.38;11.25;;;;;;;5.95;100.00;100241.28;4924529;29;20139;-76
2022/09/25 04:49:02;;;;;;;11.77;10.35;;;;;;;5.96;100.00;100243.03;4924785;29;20079;-75
2022/09/25 04:51:28;;;;;;;12.63;10.95;;;;;;;6.01;100.00;100241.31;4929846;29;20031;-76
2022/09/25 04:53:55;;;;;;;14.30;11.70;;;;;;;6.06;100.00;100241.38;4922271;29;20495;-76
2022/09/25 04:56:20;;;;;;;13.95;10.85;;;;;;;6.07;100.00;100238.75;4926137;29;20047;-76
2022/09/25 04:58:48;;;;;;;12.80;11.30;;;;;;;6.19;100.00;100244.97;4923695;29;20123;-76
2022/09/25 05:01:15;;;;;;;13.13;10.23;;;;;;;6.19;100.00;100250.19;4924634;29;20051;-75
2022/09/25 05:03:41;;;;;;;13.55;11.10;;;;;;;6.00;100.00;100252.69;4925397;29;20036;-76
2022/09/25 05:06:07;;;;;;;11.82;9.75;;;;;;;6.02;100.00;100250.94;4923251;29;20054;-76
2022/09/25 05:08:32;;;;;;;13.82;12.43;;;;;;;5.98;100.00;100253.53;4926127;29;20039;-76
2022/09/25 05:10:58;;;;;;;13.50;11.68;;;;;;;6.04;100.00;100251.81;4930357;29;20034;-75
2022/09/25 05:13:23;;;;;;;16.90;10.57;;;;;;;6.20;100.00;100246.69;4923091;29;20044;-76
2022/09/25 05:15:48;;;;;;;14.68;10.07;;;;;;;6.36;100.00;100253.78;4924766;29;20039;-76
2022/09/25 05:18:18;;;;;;;16.50;10.75;;;;;;;6.34;100.00;100256.41;4924899;29;20038;-76
2022/09/25 05:20:44;;;;;;;24.38;11.05;;;;;;;6.43;100.00;100247.72;4922891;29;20039;-75
2022/09/25 05:23:09;;;;;;;110.75;18.00;;;;;;;6.49;100.00;100250.38;4929242;29;20563;-76
2022/09/25 05:25:35;;;;;;;75.55;17.73;;;;;;;6.55;100.00;100249.56;4925496;29;20044;-76
2022/09/25 05:28:01;;;;;;;16.88;12.95;;;;;;;6.65;100.00;100253.09;4923927;29;20036;-76
2022/09/25 05:30:29;;;;;;;20.00;14.45;;;;;;;6.70;100.00;100254.88;4924270;29;20051;-75
2022/09/25 05:32:57;;;;;;;26.25;12.27;;;;;;;6.84;100.00;100257.56;4925336;29;20512;-75
2022/09/25 05:35:23;;;;;;;17.80;12.75;;;;;;;6.91;100.00;100261.97;4946454;28;20027;-75
2022/09/25 05:37:49;;;;;;;23.92;13.27;;;;;;;6.94;100.00;100262.00;4919012;29;20044;-76
2022/09/25 05:40:15;;;;;;;18.35;13.50;;;;;;;7.00;100.00;100254.13;4923914;29;20111;-76
2022/09/25 05:42:44;;;;;;;18.85;14.57;;;;;;;7.11;100.00;100253.31;4923791;29;20043;-75
2022/09/25 05:45:14;;;;;;;34.13;14.95;;;;;;;7.26;100.00;100253.38;4925559;29;20047;-76
2022/09/25 05:47:40;;;;;;;37.72;13.82;;;;;;;7.46;100.00;100251.63;4922941;29;20043;-76
2022/09/25 05:50:08;;;;;;;41.90;15.43;;;;;;;7.58;100.00;100250.78;4924831;29;20407;-76
2022/09/25 05:52:34;;;;;;;25.63;12.93;;;;;;;7.72;100.00;100250.81;4925647;29;20078;-76
2022/09/25 05:55:02;;;;;;;17.42;13.27;;;;;;;7.94;100.00;100249.09;4925737;29;20090;-76
2022/09/25 05:57:30;;;;;;;19.17;14.63;;;;;;;8.15;100.00;100248.19;4925657;29;20044;-76
2022/09/25 05:59:55;;;;;;;26.70;13.80;;;;;;;8.38;100.00;100249.91;4923189;29;20092;-75
2022/09/25 06:02:20;;;;;;;19.40;13.65;;;;;;;8.60;100.00;100256.91;4924276;29;20491;-76
2022/09/25 06:04:45;;;;;;;21.30;14.27;;;;;;;8.74;100.00;100260.38;4924329;29;20543;-76
2022/09/25 06:07:11;;;;;;;18.67;13.05;;;;;;;8.90;99.73;100255.06;4923420;29;20504;-75
2022/09/25 06:09:36;;;;;;;15.45;13.85;;;;;;;9.05;98.96;100255.00;4925274;29;20094;-76
2022/09/25 06:12:02;;;;;;;16.35;14.63;;;;;;;9.15;98.15;100251.44;4922178;29;20071;-75
2022/09/25 06:14:29;;;;;;;17.27;15.35;;;;;;;9.34;98.66;100256.63;4925427;29;20051;-76
2022/09/25 06:16:54;;;;;;;17.13;15.32;;;;;;;9.53;98.68;100252.97;4923340;29;20098;-76
2022/09/25 06:19:19;;;;;;;15.18;13.57;;;;;;;9.68;98.16;100259.06;4924031;29;20134;-76
2022/09/25 06:21:46;;;;;;;16.23;14.00;;;;;;;9.80;98.41;100253.69;4937505;28;20067;-76
2022/09/25 06:24:11;;;;;;;15.50;13.90;;;;;;;9.92;97.48;100250.09;4926883;29;20147;-76
2022/09/25 06:26:37;;;;;;;15.50;13.43;;;;;;;9.99;97.57;100250.03;4925839;29;20073;-76
2022/09/25 06:29:02;;;;;;;16.63;14.93;;;;;;;10.03;96.66;100250.84;4928709;29;20487;-75
2022/09/25 06:31:28;;;;;;;15.43;13.77;;;;;;;10.04;97.67;100244.72;4925082;29;20044;-76
2022/09/25 06:33:53;;;;;;;17.70;15.52;;;;;;;10.08;97.21;100249.94;4926309;29;20039;-76
2022/09/25 06:36:18;;;;;;;14.45;12.98;;;;;;;10.20;96.92;100254.22;4927691;29;20506;-76
2022/09/25 06:38:44;;;;;;;15.20;13.63;;;;;;;10.26;97.00;100250.66;4926221;29;20436;-76
2022/09/25 06:41:10;;;;;;;18.00;16.15;;;;;;;10.29;95.90;100238.34;4928461;29;20458;-75
2022/09/25 06:43:35;;;;;;;16.80;15.20;;;;;;;10.35;95.77;100239.16;4925571;29;20135;-76
2022/09/25 06:46:01;;;;;;;16.42;14.40;;;;;;;10.39;96.56;100254.97;4928003;29;20046;-76
2022/09/25 06:48:26;;;;;;;17.60;15.68;;;;;;;10.56;95.10;100253.91;4925425;29;20110;-76
2022/09/25 06:50:54;;;;;;;16.27;14.13;;;;;;;10.65;95.07;100254.69;4927319;29;20447;-76
2022/09/25 06:53:21;;;;;;;19.42;15.10;;;;;;;10.73;95.04;100249.34;4929882;28;20455;-76
2022/09/25 06:55:48;;;;;;;18.00;16.02;;;;;;;10.80;94.99;100242.22;4925144;29;20059;-76
2022/09/25 06:58:16;;;;;;;19.65;17.55;;;;;;;10.89;94.83;100247.38;4928034;29;20479;-76
2022/09/25 07:00:46;;;;;;;17.13;15.43;;;;;;;10.93;95.34;100239.41;4926496;29;20491;-76
2022/09/25 07:06:20;;;;;;;16.80;15.10;;;;;;;11.19;94.68;100238.22;4925270;29;20044;-76
2022/09/25 07:08:47;;;;;;;18.92;16.98;;;;;;;11.34;94.09;100234.47;4924695;29;20036;-76
2022/09/25 07:11:24;;;;;;;21.20;18.00;;;;;;;11.39;93.07;100238.78;4924167;29;20150;-76
2022/09/25 07:13:51;;;;;;;18.65;16.75;;;;;;;11.53;93.66;100243.03;4926108;29;20062;-76
2022/09/25 07:16:19;;;;;;;17.23;14.55;;;;;;;11.78;92.11;100239.09;4926265;29;20043;-76
2022/09/25 07:18:45;;;;;;;18.38;15.95;;;;;;;11.89;92.17;100232.81;4926428;29;20098;-76
2022/09/25 07:21:13;;;;;;;18.55;16.67;;;;;;;12.07;90.33;100241.28;4929406;29;20138;-76
2022/09/25 07:23:40;;;;;;;20.20;18.20;;;;;;;12.15;89.62;100237.66;4934732;29;20065;-75
2022/09/25 07:26:09;;;;;;;19.30;17.10;;;;;;;12.12;89.90;100246.50;4926145;29;20064;-77
2022/09/25 07:28:35;;;;;;;18.88;16.90;;;;;;;12.20;89.87;100239.31;4925554;29;20130;-76
2022/09/25 07:31:16;;;;;;;19.10;16.95;;;;;;;12.33;88.84;100247.03;4938858;29;20047;-76
2022/09/25 07:33:41;;;;;;;19.30;17.30;;;;;;;12.50;88.82;100237.03;4926558;29;20036;-75
2022/09/25 07:36:07;;;;;;;20.17;16.00;;;;;;;12.56;87.80;100238.69;4924673;29;20032;-76
2022/09/25 07:38:35;;;;;;;21.42;18.80;;;;;;;12.57;87.72;100236.00;4927618;29;20465;-76
2022/09/25 07:41:01;;;;;;;18.92;16.98;;;;;;;12.54;87.45;100241.34;4924705;29;20072;-77
2022/09/25 07:43:26;;;;;;;18.38;16.48;;;;;;;12.60;87.16;100237.72;4929324;29;20056;-77
2022/09/25 07:45:54;;;;;;;19.17;17.23;;;;;;;12.76;87.17;100249.78;4929835;29;20044;-76
2022/09/25 07:48:20;;;;;;;20.85;18.65;;;;;;;12.85;85.94;100248.72;4928863;29;20043;-76
2022/09/25 07:50:47;;;;;;;20.52;18.33;;;;;;;13.00;86.04;100255.50;4926069;29;20434;-76
2022/09/25 07:53:13;;;;;;;21.15;18.60;;;;;;;12.98;85.48;100260.81;4930684;29;20079;-76
2022/09/25 07:55:38;;;;;;;20.45;18.25;;;;;;;12.90;85.67;100252.13;4925957;29;20137;-76
2022/09/25 07:58:03;;;;;;;20.02;17.17;;;;;;;12.84;85.26;100242.56;4927980;29;20439;-76
2022/09/25 08:00:28;;;;;;;18.63;16.83;;;;;;;12.81;86.41;100234.66;4925596;29;20506;-76
2022/09/25 08:02:57;;;;;;;19.77;17.50;;;;;;;12.87;87.27;100238.97;4926154;29;20082;-76
2022/09/25 08:05:23;;;;;;;21.50;17.42;;;;;;;12.95;86.29;100242.31;4923864;29;20047;-77
2022/09/25 08:07:48;;;;;;;21.45;17.33;;;;;;;13.02;85.66;100245.72;4926939;29;20039;-76
2022/09/25 08:10:14;;;;;;;19.60;17.67;;;;;;;13.13;84.62;100238.44;4924723;29;20043;-76
2022/09/25 08:12:39;;;;;;;22.67;17.45;;;;;;;13.22;84.82;100237.34;4925560;29;20048;-76
2022/09/25 08:15:05;;;;;;;18.80;16.90;;;;;;;13.31;84.06;100238.06;4925684;29;20043;-77
2022/09/25 08:17:30;;;;;;;17.90;16.10;;;;;;;13.19;84.33;100238.28;4924573;29;20039;-76
2022/09/25 08:19:57;;;;;;;20.27;17.65;;;;;;;13.26;83.89;100239.94;4926812;29;20036;-76
2022/09/25 08:22:22;;;;;;;22.13;17.35;;;;;;;13.31;84.06;100239.84;4925833;29;20048;-76
2022/09/25 08:24:48;;;;;;;18.55;16.58;;;;;;;13.40;83.52;100231.66;4924335;29;20487;-77
2022/09/25 08:27:13;;;;;;;24.90;18.13;;;;;;;13.51;83.37;100237.59;4924449;29;20054;-77
2022/09/25 08:29:38;;;;;;;19.23;17.27;;;;;;;13.62;82.81;100244.44;4925341;29;20103;-76
2022/09/25 08:32:03;;;;;;;17.55;15.73;;;;;;;13.73;82.18;100234.47;4924204;29;20031;-76
2022/09/25 08:34:29;;;;;;;20.88;16.02;;;;;;;13.77;81.05;100226.38;4926278;29;20183;-76
2022/09/25 08:36:55;;;;;;;20.65;17.20;;;;;;;13.75;80.83;100227.31;4923401;29;20036;-76
2022/09/25 08:39:21;;;;;;;18.48;16.48;;;;;;;13.75;80.70;100227.31;4924995;29;20126;-76
2022/09/25 08:41:50;;;;;;;21.27;16.48;;;;;;;13.83;80.66;100233.31;4924119;29;20557;-76
2022/09/25 08:44:35;;;;;;;16.75;14.88;;;;;;;13.95;79.27;100225.06;4924570;29;20139;-77
2022/09/25 08:50:01;;;;;;;18.70;14.63;;;;;;;14.02;77.04;100213.38;4924993;29;20118;-76
2022/09/25 08:52:27;;;;;;;17.92;14.27;;;;;;;13.93;76.22;100216.25;4926270;29;20119;-76
2022/09/25 08:54:53;;;;;;;16.42;14.02;;;;;;;13.89;76.56;100213.75;4923765;29;20040;-76
2022/09/25 08:57:38;;;;;;;16.42;13.52;;;;;;;13.90;75.83;100215.47;4923891;29;20050;-76
2022/09/25 09:00:11;;;;;;;14.95;13.55;;;;;;;13.94;75.41;100211.84;4938414;29;20036;-76
2022/09/25 09:02:45;;;;;;;14.88;13.32;;;;;;;14.04;75.63;100205.38;4923899;29;20072;-77
2022/09/25 09:05:30;;;;;;;14.10;12.63;;;;;;;14.09;73.65;100202.59;4923111;29;20031;-76
2022/09/25 09:08:04;;;;;;;14.68;13.20;;;;;;;14.20;74.04;100206.75;4922970;29;20108;-77
2022/09/25 09:10:35;;;;;;;14.15;12.55;;;;;;;14.28;72.27;100198.56;4924253;29;20120;-76
2022/09/25 09:13:15;;;;;;;15.05;12.05;;;;;;;14.36;72.19;100198.38;4923435;29;20484;-77
2022/09/25 09:16:00;;;;;;;13.57;12.10;;;;;;;14.47;72.54;100194.50;4924172;29;20067;-76
2022/09/25 09:18:31;;;;;;;15.07;13.52;;;;;;;14.50;72.04;100195.34;4923611;29;20127;-76
2022/09/25 09:21:03;;;;;;;14.37;12.97;;;;;;;14.54;74.08;100191.69;4930243;29;20623;-76
2022/09/25 09:23:47;;;;;;;14.65;13.07;;;;;;;14.78;72.00;100187.50;4926553;28;20299;-76
2022/09/25 09:26:23;;;;;;;14.70;13.20;;;;;;;14.95;72.31;100187.84;4925488;29;20039;-76
2022/09/25 09:28:58;;;;;;;14.55;12.95;;;;;;;15.11;71.07;100188.25;4923707;29;20392;-77
2022/09/25 09:31:36;;;;;;;12.98;11.73;;;;;;;15.24;70.24;100180.78;4922995;29;20040;-75
2022/09/25 09:34:40;;;;;;;14.32;12.98;;;;;;;15.41;69.65;100181.16;4924272;29;20047;-76
2022/09/25 09:37:39;;;;;;;11.90;10.70;;;;;;;15.45;67.84;100181.91;4925524;29;20055;-76
2022/09/25 09:40:52;;;;;;;13.70;12.35;;;;;;;15.67;67.69;100177.66;4891248;29;20091;-77
2022/09/25 09:43:41;;;;;;;13.60;12.18;;;;;;;15.92;66.58;100177.72;4866946;29;20100;-77
2022/09/25 09:46:16;;;;;;;12.45;11.18;;;;;;;16.04;66.42;100179.09;4867025;29;20048;-77
2022/09/25 09:49:05;;;;;;;12.55;11.35;;;;;;;16.29;64.21;100168.44;4912685;29;20102;-76
2022/09/25 09:51:54;;;;;;;14.40;12.95;;;;;;;16.54;64.54;100163.13;4929832;29;20697;-77
2022/09/25 09:54:37;;;;;;;13.65;12.25;;;;;;;16.82;63.32;100162.13;4939217;29;20036;-76
2022/09/25 09:57:12;;;;;;;13.27;11.88;;;;;;;17.11;62.36;100160.13;4929719;29;20074;-75
2022/09/25 10:00:02;;;;;;;12.50;11.30;;;;;;;17.44;60.92;100166.81;4940010;29;20064;-76
2022/09/25 10:02:49;;;;;;;15.48;12.43;;;;;;;17.87;59.78;100161.56;4924244;29;20071;-77
2022/09/25 10:05:38;;;;;;;13.07;11.85;;;;;;;18.03;59.30;100156.44;4928858;29;20095;-77
2022/09/25 10:08:03;;;;;;;11.57;10.57;;;;;;;18.50;58.72;100146.31;4943231;28;20051;-76
2022/09/25 10:10:35;;;;;;;11.65;10.65;;;;;;;18.69;57.54;100141.00;4926195;29;20051;-77
2022/09/25 10:13:05;;;;;;;11.98;10.93;;;;;;;18.83;56.51;100138.56;4926821;29;20066;-76
2022/09/25 10:15:34;;;;;;;12.48;11.18;;;;;;;19.02;56.53;100140.38;4929187;29;20059;-77
2022/09/25 10:18:02;;;;;;;11.25;10.05;;;;;;;19.16;55.43;100142.44;4929075;29;20043;-77
2022/09/25 10:20:40;;;;;;;11.77;10.70;;;;;;;19.29;54.73;100145.38;4926063;29;20036;-77
2022/09/25 10:23:27;;;;;;;11.05;10.05;;;;;;;19.52;54.93;100142.44;4932463;29;20044;-76
2022/09/25 10:25:52;;;;;;;13.25;9.80;;;;;;;19.74;54.75;100138.72;4927993;29;20058;-76
2022/09/25 10:28:25;;;;;;;10.82;9.93;;;;;;;19.78;53.50;100140.28;4926332;29;20483;-76
2022/09/25 10:30:51;;;;;;;11.18;10.00;;;;;;;19.77;54.64;100141.25;4926321;29;20107;-77
2022/09/25 10:33:29;;;;;;;12.25;11.15;;;;;;;19.76;53.32;100139.53;4927427;29;20046;-77
2022/09/25 10:35:55;;;;;;;15.55;11.52;;;;;;;19.73;55.06;100136.97;4924097;29;20091;-76
2022/09/25 10:38:42;;;;;;;11.95;10.55;;;;;;;19.70;54.00;100136.22;4928589;29;20410;-76
2022/09/25 10:41:11;;;;;;;11.57;10.57;;;;;;;19.86;55.48;100133.63;4925662;29;20435;-76
2022/09/25 10:44:00;;;;;;;12.57;11.38;;;;;;;20.18;53.81;100136.47;4927627;29;20043;-76
2022/09/25 10:50:09;;;;;;;12.70;11.60;;;;;;;20.27;53.20;100135.97;4926621;29;20040;-77
2022/09/25 10:52:06;;;;;;;12.93;11.52;;;;;;;20.27;53.25;100125.25;4927169;29;20043;-76
2022/09/25 10:54:32;;;;;;;13.13;11.93;;;;;;;19.98;52.50;100134.78;4926791;29;20598;-77
2022/09/25 10:56:58;;;;;;;12.05;10.95;;;;;;;19.67;52.71;100117.59;4927693;29;20039;-77
2022/09/25 10:59:24;;;;;;;11.27;10.15;;;;;;;19.66;52.87;100118.56;4924003;29;20123;-76
2022/09/25 11:01:53;;;;;;;11.02;10.02;;;;;;;19.80;52.31;100106.28;4924948;29;20151;-76
2022/09/25 11:04:26;;;;;;;11.90;9.70;;;;;;;19.63;52.07;100113.34;4927247;29;20414;-76
2022/09/25 11:06:57;;;;;;;10.15;9.25;;;;;;;19.50;52.71;100112.22;4942369;29;20131;-76
2022/09/25 11:09:25;;;;;;;10.80;9.90;;;;;;;19.48;52.24;100103.38;4925237;29;20040;-77
2022/09/25 11:11:52;;;;;;;10.13;9.20;;;;;;;19.66;52.70;100105.19;4926089;29;20070;-77
2022/09/25 11:14:31;;;;;;;10.57;9.68;;;;;;;19.98;52.32;100094.63;4926996;29;20102;-77
2022/09/25 11:16:57;;;;;;;11.00;9.88;;;;;;;20.12;50.53;100097.47;4925396;29;20114;-77
2022/09/25 11:19:37;;;;;;;9.90;9.00;;;;;;;20.41;51.37;100103.09;4926719;29;20465;-76
2022/09/25 11:22:15;;;;;;;10.45;9.55;;;;;;;20.48;49.39;100100.94;4927688;29;20127;-76
2022/09/25 11:24:54;;;;;;;10.05;9.20;;;;;;;20.64;47.46;100090.25;4940390;29;20139;-76
2022/09/25 11:27:41;;;;;;;9.23;8.43;;;;;;;21.09;47.90;100091.31;4930207;29;20060;-76
2022/09/25 11:30:17;;;;;;;8.50;7.68;;;;;;;20.84;46.85;100090.03;4924191;29;20044;-76
2022/09/25 11:33:14;;;;;;;8.45;7.85;;;;;;;20.89;47.26;100089.78;4939834;29;20135;-77
2022/09/25 11:35:55;;;;;;;8.52;7.82;;;;;;;20.74;47.39;100087.00;4927619;29;20035;-76
2022/09/25 11:41:31;;;;;;;9.48;8.68;;;;;;;20.53;49.38;100085.47;4925035;29;20044;-76
2022/09/25 11:44:17;;;;;;;9.43;8.55;;;;;;;20.63;48.61;100085.88;4925607;29;20491;-76
2022/09/25 11:47:14;;;;;;;9.20;8.43;;;;;;;20.86;47.34;100073.88;4926064;29;20088;-76
2022/09/25 11:49:41;;;;;;;10.15;9.35;;;;;;;20.85;46.23;100072.97;4927379;29;20617;-77
2022/09/25 11:52:28;;;;;;;10.18;9.30;;;;;;;20.63;46.63;100069.78;4928931;29;20036;-77